createdAt,value
2022-09-04T00:00:26.158Z,16.83
2022-09-04T00:01:05.669Z,13.75
2022-09-04T00:01:46.746Z,19.67
2022-09-04T00:02:24.800Z,23.38
2022-09-04T00:03:10.872Z,15.55
2022-09-04T00:03:53.392Z,26.42
2022-09-04T00:04:29.953Z,17.15
2022-09-04T00:05:15.346Z,18.05
2022-09-04T00:05:54.473Z,20.42
2022-09-04T00:06:29.800Z,21.92
2022-09-04T00:07:10.176Z,21.50
2022-09-04T00:08:14.722Z,21.60
2022-09-04T00:08:56.370Z,35.83
2022-09-04T00:09:39.609Z,20.02
2022-09-04T00:10:12.138Z,18.35
2022-09-04T00:10:47.634Z,19.40
2022-09-04T00:11:35.089Z,16.80
2022-09-04T00:12:11.424Z,19.52
2022-09-04T00:12:49.428Z,14.55
2022-09-04T00:13:24.262Z,49.50
2022-09-04T00:14:05.619Z,20.38
2022-09-04T00:14:43.855Z,21.10
2022-09-04T00:15:27.457Z,18.50
2022-09-04T00:16:05.445Z,19.13
2022-09-04T00:16:43.377Z,24.80
2022-09-04T00:17:31.003Z,17.70
2022-09-04T00:18:06.368Z,24.25
2022-09-04T00:18:41.827Z,26.30
2022-09-04T00:19:32.357Z,14.77
2022-09-04T00:20:13.232Z,19.80
2022-09-04T00:20:45.618Z,19.77
2022-09-04T00:21:21.772Z,17.52
2022-09-04T00:21:58.238Z,25.50
2022-09-04T00:22:33.318Z,16.67
2022-09-04T00:23:12.348Z,19.95
2022-09-04T00:23:50.122Z,19.75
2022-09-04T00:24:24.121Z,19.90
2022-09-04T00:25:19.605Z,19.15
2022-09-04T00:26:12.153Z,31.35
2022-09-04T00:26:44.947Z,23.33
2022-09-04T00:27:20.289Z,18.92
2022-09-04T00:27:56.870Z,25.38
2022-09-04T00:28:29.399Z,14.27
2022-09-04T00:29:05.484Z,15.48
2022-09-04T00:29:52.865Z,14.50
2022-09-04T00:30:25.222Z,17.48
2022-09-04T00:31:04.987Z,17.75
2022-09-04T00:31:44.920Z,19.38
2022-09-04T00:32:20.001Z,17.38
2022-09-04T00:32:57.395Z,15.30
2022-09-04T00:33:36.028Z,21.08
2022-09-04T00:34:26.698Z,19.55
2022-09-04T00:35:04.526Z,14.23
2022-09-04T00:35:57.223Z,16.58
2022-09-04T00:36:29.920Z,19.67
2022-09-04T00:37:05.301Z,14.20
2022-09-04T00:37:45.048Z,21.27
2022-09-04T00:38:38.492Z,19.88
2022-09-04T00:39:13.703Z,33.33
2022-09-04T00:39:50.688Z,16.05
2022-09-04T00:40:31.929Z,23.20
2022-09-04T00:41:11.254Z,14.70
2022-09-04T00:42:03.778Z,14.43
2022-09-04T00:42:55.007Z,21.50
2022-09-04T00:43:30.048Z,16.23
2022-09-04T00:44:08.181Z,16.27
2022-09-04T00:44:46.291Z,13.95
2022-09-04T00:45:24.423Z,15.68
2022-09-04T00:46:02.639Z,17.80
2022-09-04T00:46:38.286Z,15.15
2022-09-04T00:47:30.760Z,14.50
2022-09-04T00:48:03.034Z,28.98
2022-09-04T00:48:53.948Z,13.82
2022-09-04T00:49:36.766Z,21.52
2022-09-04T00:50:15.725Z,16.17
2022-09-04T00:50:50.957Z,11.63
2022-09-04T00:51:36.562Z,14.85
2022-09-04T00:52:18.520Z,16.60
2022-09-04T00:53:09.963Z,15.20
2022-09-04T00:53:42.452Z,16.63
2022-09-04T00:54:14.833Z,16.08
2022-09-04T00:54:56.310Z,13.95
2022-09-04T00:55:28.622Z,26.48
2022-09-04T00:56:20.503Z,17.05
2022-09-04T00:56:55.758Z,19.48
2022-09-04T00:57:46.458Z,12.70
2022-09-04T00:58:54.257Z,18.95
2022-09-04T00:59:32.381Z,17.48
2022-09-04T01:00:06.024Z,16.95
2022-09-04T01:00:39.092Z,16.45
2022-09-04T01:01:14.136Z,13.45
2022-09-04T01:01:47.842Z,20.85
2022-09-04T01:02:38.960Z,15.60
2022-09-04T01:03:14.395Z,14.15
2022-09-04T01:03:53.942Z,22.48
2022-09-04T01:04:33.748Z,19.92
2022-09-04T01:05:19.860Z,15.15
2022-09-04T01:06:10.909Z,18.58
2022-09-04T01:06:50.509Z,16.30
2022-09-04T01:07:35.469Z,23.35
2022-09-04T01:08:07.817Z,17.10
2022-09-04T01:09:00.170Z,20.95
2022-09-04T01:09:32.479Z,17.17
2022-09-04T01:10:10.457Z,14.10
2022-09-04T01:11:01.367Z,17.83
2022-09-04T01:11:39.878Z,19.17
2022-09-04T01:12:12.400Z,19.70
2022-09-04T01:12:58.046Z,15.38
2022-09-04T01:13:48.811Z,14.18
2022-09-04T01:14:28.295Z,22.50
2022-09-04T01:15:11.731Z,17.48
2022-09-04T01:16:11.306Z,15.90
2022-09-04T01:16:48.979Z,18.73
2022-09-04T01:17:23.387Z,19.63
2022-09-04T01:18:07.376Z,15.60
2022-09-04T01:18:45.726Z,17.05
2022-09-04T01:19:23.843Z,17.70
2022-09-04T01:20:03.579Z,18.27
2022-09-04T01:20:47.813Z,13.80
2022-09-04T01:21:39.083Z,18.77
2022-09-04T01:22:16.670Z,15.38
2022-09-04T01:22:49.768Z,20.58
2022-09-04T01:23:41.248Z,13.95
2022-09-04T01:24:29.335Z,22.58
2022-09-04T01:25:12.007Z,19.90
2022-09-04T01:25:47.990Z,11.88
2022-09-04T01:26:20.270Z,17.25
2022-09-04T01:27:11.352Z,12.77
2022-09-04T01:27:51.578Z,17.73
2022-09-04T01:28:27.865Z,17.95
2022-09-04T01:29:10.882Z,16.27
2022-09-04T01:29:46.169Z,15.40
2022-09-04T01:30:19.320Z,15.93
2022-09-04T01:30:57.813Z,18.10
2022-09-04T01:31:30.204Z,16.17
2022-09-04T01:32:05.639Z,18.52
2022-09-04T01:32:56.858Z,22.10
2022-09-04T01:33:36.463Z,16.88
2022-09-04T01:34:16.172Z,25.75
2022-09-04T01:34:59.877Z,16.45
2022-09-04T01:35:32.172Z,19.80
2022-09-04T01:36:09.430Z,14.00
2022-09-04T01:36:46.330Z,16.95
2022-09-04T01:37:30.746Z,17.52
2022-09-04T01:38:08.887Z,19.90
2022-09-04T01:38:54.778Z,17.20
2022-09-04T01:39:29.382Z,18.80
2022-09-04T01:40:20.570Z,27.27
2022-09-04T01:41:07.527Z,16.60
2022-09-04T01:41:53.450Z,14.82
2022-09-04T01:42:33.569Z,16.00
2022-09-04T01:43:38.146Z,15.32
2022-09-04T01:44:11.099Z,15.50
2022-09-04T01:44:43.797Z,16.98
2022-09-04T01:45:18.204Z,14.90
2022-09-04T01:45:50.523Z,20.23
2022-09-04T01:46:41.374Z,15.68
2022-09-04T01:47:19.824Z,26.08
2022-09-04T01:47:55.473Z,17.98
2022-09-04T01:48:36.260Z,17.00
2022-09-04T01:49:16.976Z,14.45
2022-09-04T01:50:11.174Z,19.80
2022-09-04T01:50:45.722Z,21.95
2022-09-04T01:51:24.180Z,13.00
2022-09-04T01:52:08.645Z,17.83
2022-09-04T01:52:50.061Z,21.42
2022-09-04T01:53:26.760Z,19.83
2022-09-04T01:54:17.579Z,16.75
2022-09-04T01:55:08.461Z,25.80
2022-09-04T01:55:44.975Z,16.23
2022-09-04T01:56:25.024Z,18.63
2022-09-04T01:57:49.537Z,16.45
2022-09-04T01:58:28.132Z,18.90
2022-09-04T01:59:23.244Z,18.10
2022-09-04T01:59:58.334Z,18.15
2022-09-04T02:00:34.188Z,14.50
2022-09-04T02:01:25.454Z,19.20
2022-09-04T02:02:14.763Z,24.17
2022-09-04T02:02:55.164Z,19.67
2022-09-04T02:03:34.095Z,16.13
2022-09-04T02:04:18.413Z,17.98
2022-09-04T02:05:09.481Z,17.38
2022-09-04T02:06:01.855Z,12.25
2022-09-04T02:06:37.510Z,19.23
2022-09-04T02:07:09.800Z,17.23
2022-09-04T02:08:00.235Z,16.52
2022-09-04T02:08:38.432Z,13.32
2022-09-04T02:09:11.144Z,15.82
2022-09-04T02:09:46.334Z,14.27
2022-09-04T02:10:30.891Z,19.48
2022-09-04T02:11:09.021Z,16.02
2022-09-04T02:11:45.616Z,19.65
2022-09-04T02:12:36.096Z,12.60
2022-09-04T02:13:15.184Z,16.23
2022-09-04T02:13:47.450Z,17.25
2022-09-04T02:14:43.030Z,16.02
2022-09-04T02:15:26.506Z,15.00
2022-09-04T02:15:58.891Z,14.55
2022-09-04T02:16:31.304Z,15.80
2022-09-04T02:17:09.583Z,21.73
2022-09-04T02:17:47.776Z,14.23
2022-09-04T02:18:43.573Z,12.82
2022-09-04T02:19:19.105Z,14.38
2022-09-04T02:20:03.362Z,12.30
2022-09-04T02:20:35.867Z,14.05
2022-09-04T02:21:11.728Z,27.13
2022-09-04T02:21:46.735Z,16.92
2022-09-04T02:22:25.520Z,15.10
2022-09-04T02:23:15.626Z,15.05
2022-09-04T02:24:37.953Z,23.48
2022-09-04T02:25:13.053Z,11.93
2022-09-04T02:25:49.460Z,13.25
2022-09-04T02:26:29.387Z,17.95
2022-09-04T02:27:07.944Z,13.32
2022-09-04T02:27:55.705Z,12.75
2022-09-04T02:28:31.013Z,14.48
2022-09-04T02:29:05.989Z,14.43
2022-09-04T02:29:58.646Z,18.48
2022-09-04T02:30:34.266Z,11.20
2022-09-04T02:31:12.429Z,15.65
2022-09-04T02:31:53.039Z,27.77
2022-09-04T02:32:29.064Z,18.15
2022-09-04T02:33:19.695Z,15.50
2022-09-04T02:34:01.020Z,13.38
2022-09-04T02:34:50.047Z,19.70
2022-09-04T02:35:28.435Z,15.54
2022-09-04T02:36:15.942Z,14.30
2022-09-04T02:36:53.798Z,18.27
2022-09-04T02:37:40.970Z,15.38
2022-09-04T02:38:13.373Z,16.95
2022-09-04T02:38:52.251Z,18.92
2022-09-04T02:39:43.297Z,16.42
2022-09-04T02:40:19.195Z,12.75
2022-09-04T02:41:10.037Z,17.00
2022-09-04T02:41:51.288Z,21.13
2022-09-04T02:42:32.492Z,12.88
2022-09-04T02:43:04.913Z,16.13
2022-09-04T02:43:42.932Z,13.20
2022-09-04T02:44:18.735Z,15.48
2022-09-04T02:45:10.447Z,14.20
2022-09-04T02:45:48.135Z,14.88
2022-09-04T02:46:34.316Z,22.30
2022-09-04T02:47:12.559Z,21.55
2022-09-04T02:47:58.999Z,16.80
2022-09-04T02:48:47.637Z,13.45
2022-09-04T02:49:38.300Z,15.65
2022-09-04T02:50:30.320Z,17.90
2022-09-04T02:51:13.886Z,18.52
2022-09-04T02:52:04.779Z,15.43
2022-09-04T02:52:43.292Z,15.40
2022-09-04T02:53:24.567Z,15.80
2022-09-04T02:53:57.100Z,28.60
2022-09-04T02:54:44.472Z,13.80
2022-09-04T02:55:21.664Z,16.02
2022-09-04T02:56:21.070Z,15.45
2022-09-04T02:57:04.384Z,11.60
2022-09-04T02:57:50.606Z,16.50
2022-09-04T02:58:50.144Z,24.05
2022-09-04T02:59:33.505Z,15.88
2022-09-04T03:00:21.395Z,15.98
2022-09-04T03:01:23.321Z,18.88
2022-09-04T03:02:01.161Z,20.98
2022-09-04T03:02:39.437Z,15.02
2022-09-04T03:03:11.958Z,14.50
2022-09-04T03:03:50.827Z,14.77
2022-09-04T03:04:38.043Z,16.02
2022-09-04T03:05:19.770Z,14.18
2022-09-04T03:05:52.100Z,13.88
2022-09-04T03:06:29.695Z,17.73
2022-09-04T03:07:21.211Z,14.60
2022-09-04T03:08:09.084Z,15.07
2022-09-04T03:08:47.293Z,26.33
2022-09-04T03:09:23.291Z,15.10
2022-09-04T03:10:04.334Z,18.20
2022-09-04T03:10:49.162Z,19.52
2022-09-04T03:11:26.131Z,20.80
2022-09-04T03:12:04.018Z,13.07
2022-09-04T03:12:40.363Z,13.35
2022-09-04T03:13:21.537Z,16.23
2022-09-04T03:14:03.790Z,19.10
2022-09-04T03:14:58.503Z,15.30
2022-09-04T03:15:54.781Z,16.98
2022-09-04T03:16:32.617Z,17.65
2022-09-04T03:17:13.716Z,15.98
2022-09-04T03:17:49.556Z,11.93
2022-09-04T03:18:24.938Z,18.60
2022-09-04T03:19:16.519Z,19.50
2022-09-04T03:19:52.244Z,17.70
2022-09-04T03:20:26.440Z,16.88
2022-09-04T03:21:14.834Z,17.95
2022-09-04T03:22:05.850Z,17.20
2022-09-04T03:22:38.110Z,15.68
2022-09-04T03:23:15.367Z,18.73
2022-09-04T03:24:03.317Z,15.15
2022-09-04T03:24:54.047Z,15.90
2022-09-04T03:25:32.390Z,14.52
2022-09-04T03:26:04.715Z,16.23
2022-09-04T03:26:39.574Z,17.65
2022-09-04T03:27:13.673Z,15.98
2022-09-04T03:27:46.621Z,15.27
2022-09-04T03:28:25.476Z,15.70
2022-09-04T03:29:09.313Z,15.93
2022-09-04T03:29:44.527Z,15.15
2022-09-04T03:30:17.398Z,17.85
2022-09-04T03:30:49.773Z,23.23
2022-09-04T03:31:25.074Z,15.18
2022-09-04T03:32:00.343Z,17.45
2022-09-04T03:32:52.199Z,14.05
2022-09-04T03:33:29.865Z,18.08
2022-09-04T03:34:17.555Z,15.13
2022-09-04T03:34:55.654Z,17.52
2022-09-04T03:35:34.144Z,18.58
2022-09-04T03:36:09.489Z,19.27
2022-09-04T03:36:41.867Z,12.80
2022-09-04T03:37:14.257Z,14.27
2022-09-04T03:37:46.994Z,12.80
2022-09-04T03:38:38.410Z,21.60
2022-09-04T03:39:24.207Z,16.10
2022-09-04T03:40:04.586Z,15.45
2022-09-04T03:40:38.993Z,17.67
2022-09-04T03:41:25.396Z,15.18
2022-09-04T03:42:06.970Z,13.60
2022-09-04T03:42:51.476Z,16.23
2022-09-04T03:43:26.492Z,13.90
2022-09-04T03:44:37.076Z,19.05
2022-09-04T03:45:18.276Z,24.20
2022-09-04T03:45:59.480Z,18.88
2022-09-04T03:46:37.889Z,18.40
2022-09-04T03:47:18.463Z,17.70
2022-09-04T03:48:04.343Z,14.88
2022-09-04T03:49:02.672Z,16.65
2022-09-04T03:49:35.581Z,21.85
2022-09-04T03:50:13.665Z,17.00
2022-09-04T03:51:03.806Z,16.05
2022-09-04T03:51:45.809Z,16.20
2022-09-04T03:52:26.327Z,13.15
2022-09-04T03:53:03.241Z,22.92
2022-09-04T03:53:39.243Z,17.70
2022-09-04T03:54:24.544Z,24.58
2022-09-04T03:54:57.103Z,17.52
2022-09-04T03:55:29.320Z,13.90
2022-09-04T03:56:19.114Z,17.40
2022-09-04T03:57:03.915Z,18.10
2022-09-04T03:57:36.305Z,13.80
2022-09-04T03:58:11.899Z,15.98
2022-09-04T03:58:50.176Z,17.00
2022-09-04T03:59:33.803Z,19.55
2022-09-04T04:00:12.290Z,11.68
2022-09-04T04:01:13.366Z,13.00
2022-09-04T04:01:57.075Z,17.70
2022-09-04T04:02:55.578Z,16.80
2022-09-04T04:03:45.728Z,24.70
2022-09-04T04:04:52.340Z,18.02
2022-09-04T04:05:43.311Z,16.58
2022-09-04T04:06:15.868Z,16.10
2022-09-04T04:07:01.778Z,16.65
2022-09-04T04:07:35.864Z,19.52
2022-09-04T04:08:27.728Z,13.00
2022-09-04T04:09:19.012Z,17.02
2022-09-04T04:10:01.054Z,13.35
2022-09-04T04:10:39.587Z,21.52
2022-09-04T04:11:29.708Z,17.98
2022-09-04T04:12:16.253Z,16.05
2022-09-04T04:13:01.290Z,13.15
2022-09-04T04:13:55.561Z,18.17
2022-09-04T04:14:48.200Z,12.57
2022-09-04T04:15:39.471Z,29.65
2022-09-04T04:16:31.414Z,22.05
2022-09-04T04:17:22.470Z,14.52
2022-09-04T04:18:01.401Z,17.10
2022-09-04T04:18:43.831Z,17.92
2022-09-04T04:19:36.399Z,13.73
2022-09-04T04:20:09.660Z,23.55
2022-09-04T04:20:45.108Z,17.77
2022-09-04T04:21:33.930Z,17.65
2022-09-04T04:22:25.086Z,20.02
2022-09-04T04:23:06.180Z,12.32
2022-09-04T04:23:48.600Z,13.93
2022-09-04T04:24:30.106Z,16.63
2022-09-04T04:25:16.763Z,22.60
2022-09-04T04:26:09.080Z,18.15
2022-09-04T04:26:41.390Z,15.60
2022-09-04T04:27:22.303Z,16.30
2022-09-04T04:28:17.371Z,14.93
2022-09-04T04:29:06.314Z,12.98
2022-09-04T04:29:41.822Z,14.57
2022-09-04T04:30:17.516Z,19.48
2022-09-04T04:30:54.494Z,16.48
2022-09-04T04:31:26.855Z,11.98
2022-09-04T04:32:37.697Z,14.60
2022-09-04T04:33:15.707Z,12.55
2022-09-04T04:34:10.296Z,18.40
2022-09-04T04:34:45.587Z,19.65
2022-09-04T04:35:26.960Z,22.80
2022-09-04T04:36:25.676Z,21.77
2022-09-04T04:37:03.396Z,16.25
2022-09-04T04:37:43.747Z,27.83
2022-09-04T04:38:18.890Z,21.40
2022-09-04T04:39:14.431Z,14.27
2022-09-04T04:39:54.293Z,15.30
2022-09-04T04:40:30.397Z,15.15
2022-09-04T04:41:21.723Z,14.65
2022-09-04T04:42:06.183Z,21.40
2022-09-04T04:42:44.232Z,19.90
2022-09-04T04:43:19.308Z,14.13
2022-09-04T04:43:56.832Z,11.23
2022-09-04T04:44:59.741Z,13.93
2022-09-04T04:45:52.800Z,13.57
2022-09-04T04:46:40.075Z,22.85
2022-09-04T04:47:35.595Z,20.58
2022-09-04T04:48:17.039Z,25.98
2022-09-04T04:49:09.598Z,18.05
2022-09-04T04:49:41.912Z,30.63
2022-09-04T04:50:14.231Z,18.58
2022-09-04T04:51:05.557Z,17.30
2022-09-04T04:51:52.739Z,14.70
2022-09-04T04:52:45.331Z,27.73
2022-09-04T04:53:26.802Z,48.20
2022-09-04T04:53:59.778Z,37.55
2022-09-04T04:54:40.853Z,37.45
2022-09-04T04:55:31.751Z,20.95
2022-09-04T04:56:27.505Z,19.90
2022-09-04T04:57:18.453Z,28.77
2022-09-04T04:57:56.876Z,19.20
2022-09-04T04:58:42.338Z,27.08
2022-09-04T04:59:33.402Z,14.27
2022-09-04T05:00:16.397Z,19.63
2022-09-04T05:00:48.716Z,41.55
2022-09-04T05:01:33.105Z,22.30
2022-09-04T05:02:08.325Z,22.83
2022-09-04T05:02:52.355Z,20.58
2022-09-04T05:03:27.590Z,23.40
2022-09-04T05:04:12.412Z,23.23
2022-09-04T05:04:48.252Z,19.98
2022-09-04T05:05:39.531Z,25.92
2022-09-04T05:06:31.623Z,13.95
2022-09-04T05:07:11.214Z,37.65
2022-09-04T05:08:09.691Z,26.63
2022-09-04T05:08:50.791Z,23.10
2022-09-04T05:09:33.588Z,31.67
2022-09-04T05:10:15.723Z,21.65
2022-09-04T05:10:51.174Z,19.65
2022-09-04T05:11:46.503Z,40.10
2022-09-04T05:12:44.962Z,31.23
2022-09-04T05:13:27.412Z,78.57
2022-09-04T05:14:05.720Z,94.32
2022-09-04T05:14:58.364Z,93.72
2022-09-04T05:16:07.330Z,96.25
2022-09-04T05:16:55.357Z,108.05
2022-09-04T05:17:33.844Z,144.43
2022-09-04T05:18:16.294Z,62.08
2022-09-04T05:19:09.556Z,51.53
2022-09-04T05:19:47.793Z,41.75
2022-09-04T05:20:32.777Z,22.75
2022-09-04T05:21:05.153Z,41.22
2022-09-04T05:21:48.423Z,63.30
2022-09-04T05:22:34.056Z,81.90
2022-09-04T05:23:29.996Z,32.33
2022-09-04T05:24:04.990Z,88.32
2022-09-04T05:24:55.788Z,42.85
2022-09-04T05:25:47.819Z,35.63
2022-09-04T05:26:26.286Z,56.42
2022-09-04T05:27:07.388Z,108.13
2022-09-04T05:27:42.352Z,76.55
2022-09-04T05:28:31.004Z,88.43
2022-09-04T05:29:16.529Z,89.15
2022-09-04T05:30:15.445Z,48.47
2022-09-04T05:31:06.654Z,68.97
2022-09-04T05:31:42.298Z,58.08
2022-09-04T05:32:20.947Z,22.30
2022-09-04T05:32:59.639Z,36.80
2022-09-04T05:33:34.753Z,40.38
2022-09-04T05:34:13.265Z,32.95
2022-09-04T05:34:54.430Z,39.28
2022-09-04T05:35:45.152Z,18.45
2022-09-04T05:36:24.525Z,16.70
2022-09-04T05:37:04.313Z,15.52
2022-09-04T05:37:43.111Z,22.63
2022-09-04T05:38:28.666Z,28.00
2022-09-04T05:39:04.637Z,32.92
2022-09-04T05:39:49.551Z,19.75
2022-09-04T05:40:40.932Z,24.80
2022-09-04T05:41:29.072Z,25.67
2022-09-04T05:42:06.388Z,16.63
2022-09-04T05:42:43.232Z,22.70
2022-09-04T05:43:18.231Z,22.88
2022-09-04T05:44:00.630Z,21.02
2022-09-04T05:44:40.222Z,27.13
2022-09-04T05:45:20.576Z,17.17
2022-09-04T05:45:57.852Z,31.98
2022-09-04T05:46:51.902Z,29.10
2022-09-04T05:47:30.937Z,23.02
2022-09-04T05:48:22.020Z,53.45
2022-09-04T05:49:02.689Z,91.38
2022-09-04T05:50:04.095Z,89.50
2022-09-04T05:50:43.991Z,105.30
2022-09-04T05:51:19.069Z,26.25
2022-09-04T05:52:01.816Z,24.65
2022-09-04T05:52:52.849Z,17.92
2022-09-04T05:53:30.973Z,15.20
2022-09-04T05:54:03.250Z,22.95
2022-09-04T05:54:44.634Z,14.88
2022-09-04T05:55:16.943Z,21.10
2022-09-04T05:55:49.469Z,16.25
2022-09-04T05:56:21.991Z,21.15
2022-09-04T05:56:54.299Z,17.30
2022-09-04T05:57:29.523Z,20.60
2022-09-04T05:58:04.664Z,50.90
2022-09-04T05:58:54.253Z,63.40
2022-09-04T05:59:27.930Z,61.28
2022-09-04T06:00:06.251Z,64.35
2022-09-04T06:00:55.755Z,32.38
2022-09-04T06:01:57.395Z,76.45
2022-09-04T06:02:32.516Z,74.13
2022-09-04T06:03:07.775Z,28.45
2022-09-04T06:03:40.377Z,62.13
2022-09-04T06:04:18.877Z,32.17
2022-09-04T06:05:21.808Z,25.30
2022-09-04T06:06:03.782Z,84.55
2022-09-04T06:06:46.537Z,53.63
2022-09-04T06:07:37.107Z,23.67
2022-09-04T06:08:29.002Z,60.30
2022-09-04T06:09:11.774Z,26.55
2022-09-04T06:09:59.863Z,34.28
2022-09-04T06:10:50.765Z,34.85
2022-09-04T06:11:51.546Z,18.60
2022-09-04T06:13:02.290Z,30.92
2022-09-04T06:13:37.761Z,57.35
2022-09-04T06:14:29.996Z,20.65
2022-09-04T06:15:25.303Z,62.78
2022-09-04T06:16:12.776Z,32.50
2022-09-04T06:16:45.204Z,32.05
2022-09-04T06:17:26.713Z,43.28
2022-09-04T06:18:18.175Z,40.58
2022-09-04T06:19:06.253Z,28.30
2022-09-04T06:19:44.766Z,66.63
2022-09-04T06:20:32.232Z,33.80
2022-09-04T06:21:23.421Z,36.38
2022-09-04T06:22:14.861Z,64.22
2022-09-04T06:22:53.806Z,63.05
2022-09-04T06:23:39.424Z,32.63
2022-09-04T06:24:25.247Z,51.97
2022-09-04T06:25:03.771Z,64.10
2022-09-04T06:25:54.895Z,24.92
2022-09-04T06:26:27.162Z,36.50
2022-09-04T06:26:59.520Z,19.52
2022-09-04T06:27:40.737Z,16.83
2022-09-04T06:28:31.496Z,23.70
2022-09-04T06:29:22.554Z,24.40
2022-09-04T06:30:14.065Z,56.55
2022-09-04T06:30:49.341Z,16.42
2022-09-04T06:31:21.876Z,16.95
2022-09-04T06:32:03.320Z,26.60
2022-09-04T06:32:53.786Z,31.90
2022-09-04T06:33:35.040Z,31.10
2022-09-04T06:34:07.256Z,67.03
2022-09-04T06:34:59.072Z,63.75
2022-09-04T06:35:50.001Z,63.88
2022-09-04T06:36:41.639Z,236.48
2022-09-04T06:37:16.834Z,49.42
2022-09-04T06:38:18.324Z,22.65
2022-09-04T06:38:51.212Z,35.88
2022-09-04T06:39:42.334Z,22.63
2022-09-04T06:40:33.409Z,51.75
2022-09-04T06:41:06.331Z,41.47
2022-09-04T06:41:38.603Z,30.80
2022-09-04T06:43:01.390Z,82.60
2022-09-04T06:43:56.730Z,54.05
2022-09-04T06:44:48.591Z,59.00
2022-09-04T06:45:24.367Z,73.38
2022-09-04T06:46:02.138Z,51.53
2022-09-04T06:46:35.057Z,27.63
2022-09-04T06:47:15.717Z,44.08
2022-09-04T06:47:48.515Z,51.10
2022-09-04T06:48:44.216Z,57.47
2022-09-04T06:49:22.667Z,32.33
2022-09-04T06:50:07.263Z,94.82
2022-09-04T06:50:39.595Z,121.82
2022-09-04T06:51:12.691Z,87.53
2022-09-04T06:51:45.078Z,18.45
2022-09-04T06:52:33.314Z,22.33
2022-09-04T06:53:18.520Z,67.53
2022-09-04T06:54:10.446Z,104.30
2022-09-04T06:54:49.000Z,94.07
2022-09-04T06:55:21.651Z,78.85
2022-09-04T06:56:03.381Z,43.97
2022-09-04T06:56:45.913Z,105.63
2022-09-04T06:57:18.624Z,14.95
2022-09-04T06:57:54.395Z,22.02
2022-09-04T06:58:46.156Z,34.83
2022-09-04T06:59:21.388Z,50.42
2022-09-04T07:00:02.819Z,71.07
2022-09-04T07:00:44.352Z,28.27
2022-09-04T07:01:20.151Z,72.03
2022-09-04T07:02:07.803Z,16.58
2022-09-04T07:02:59.810Z,16.48
2022-09-04T07:03:38.790Z,14.95
2022-09-04T07:04:32.249Z,19.17
2022-09-04T07:05:22.927Z,33.70
2022-09-04T07:06:07.275Z,53.50
2022-09-04T07:06:45.413Z,37.03
2022-09-04T07:07:22.194Z,42.97
2022-09-04T07:07:57.420Z,19.25
2022-09-04T07:08:42.195Z,20.60
2022-09-04T07:09:17.649Z,36.53
2022-09-04T07:09:53.540Z,13.52
2022-09-04T07:10:28.584Z,20.98
2022-09-04T07:11:12.728Z,13.68
2022-09-04T07:12:11.308Z,13.35
2022-09-04T07:12:43.496Z,25.95
2022-09-04T07:13:25.205Z,29.13
2022-09-04T07:13:57.598Z,38.05
2022-09-04T07:14:36.433Z,16.08
2022-09-04T07:15:08.805Z,17.27
2022-09-04T07:15:41.235Z,29.58
2022-09-04T07:16:31.272Z,27.05
2022-09-04T07:17:43.385Z,58.03
2022-09-04T07:18:19.060Z,49.83
2022-09-04T07:19:10.820Z,12.18
2022-09-04T07:19:53.500Z,19.05
2022-09-04T07:20:31.894Z,42.47
2022-09-04T07:21:19.959Z,15.40
2022-09-04T07:22:11.901Z,23.25
2022-09-04T07:23:10.526Z,16.83
2022-09-04T07:23:45.580Z,45.15
2022-09-04T07:24:18.261Z,34.78
2022-09-04T07:24:50.548Z,22.33
2022-09-04T07:25:27.717Z,20.20
2022-09-04T07:26:18.439Z,23.75
2022-09-04T07:26:59.122Z,15.05
2022-09-04T07:27:46.753Z,23.17
2022-09-04T07:28:28.430Z,37.65
2022-09-04T07:29:09.715Z,37.80
2022-09-04T07:29:48.119Z,18.73
2022-09-04T07:30:22.626Z,25.30
2022-09-04T07:31:07.048Z,23.88
2022-09-04T07:31:50.770Z,16.90
2022-09-04T07:32:38.385Z,15.40
2022-09-04T07:33:24.761Z,18.90
2022-09-04T07:34:15.579Z,23.02
2022-09-04T07:35:23.051Z,19.35
2022-09-04T07:36:16.808Z,13.43
2022-09-04T07:37:05.926Z,22.40
2022-09-04T07:37:47.311Z,20.48
2022-09-04T07:38:28.641Z,28.98
2022-09-04T07:39:05.491Z,19.92
2022-09-04T07:39:40.291Z,19.75
2022-09-04T07:40:34.274Z,20.77
2022-09-04T07:41:14.927Z,14.45
2022-09-04T07:42:19.766Z,26.52
2022-09-04T07:43:05.526Z,43.13
2022-09-04T07:43:39.712Z,33.47
2022-09-04T07:44:14.747Z,42.83
2022-09-04T07:44:54.896Z,27.85
2022-09-04T07:46:06.893Z,18.60
2022-09-04T07:46:47.582Z,17.83
2022-09-04T07:47:43.693Z,17.05
2022-09-04T07:48:30.676Z,28.02
2022-09-04T07:49:09.765Z,14.30
2022-09-04T07:49:45.074Z,17.67
2022-09-04T07:50:20.114Z,17.05
2022-09-04T07:50:52.447Z,15.63
2022-09-04T07:51:27.444Z,17.33
2022-09-04T07:52:21.659Z,20.10
2022-09-04T07:53:03.270Z,26.48
2022-09-04T07:53:56.912Z,21.15
2022-09-04T07:54:42.725Z,49.08
2022-09-04T07:55:30.413Z,30.27
2022-09-04T07:56:11.292Z,22.17
2022-09-04T07:57:02.507Z,25.83
2022-09-04T07:57:34.869Z,25.10
2022-09-04T07:58:20.044Z,15.98
2022-09-04T07:59:28.006Z,40.55
2022-09-04T08:00:00.379Z,49.95
2022-09-04T08:00:37.033Z,25.80
2022-09-04T08:01:23.522Z,34.70
2022-09-04T08:02:14.497Z,37.40
2022-09-04T08:02:46.784Z,20.98
2022-09-04T08:03:29.578Z,25.65
2022-09-04T08:04:20.404Z,20.98
2022-09-04T08:04:58.977Z,19.45
2022-09-04T08:05:31.328Z,16.83
2022-09-04T08:06:23.179Z,14.65
2022-09-04T08:07:02.612Z,27.40
2022-09-04T08:07:35.003Z,27.50
2022-09-04T08:08:13.460Z,23.48
2022-09-04T08:08:48.560Z,33.30
2022-09-04T08:09:23.554Z,23.55
2022-09-04T08:10:15.017Z,19.40
2022-09-04T08:11:05.872Z,21.25
2022-09-04T08:11:41.218Z,55.45
2022-09-04T08:12:30.749Z,35.30
2022-09-04T08:13:18.721Z,26.83
2022-09-04T08:13:59.940Z,23.20
2022-09-04T08:14:50.967Z,19.65
2022-09-04T08:15:26.344Z,32.83
2022-09-04T08:16:04.625Z,18.88
2022-09-04T08:16:37.233Z,29.55
2022-09-04T08:17:25.638Z,22.15
2022-09-04T08:18:10.887Z,13.57
2022-09-04T08:19:01.729Z,22.05
2022-09-04T08:19:41.265Z,45.13
2022-09-04T08:20:13.809Z,45.88
2022-09-04T08:20:53.018Z,22.38
2022-09-04T08:21:29.969Z,15.90
2022-09-04T08:22:02.990Z,17.60
2022-09-04T08:22:42.920Z,18.27
2022-09-04T08:23:27.469Z,37.60
2022-09-04T08:24:02.409Z,41.55
2022-09-04T08:24:39.563Z,38.42
2022-09-04T08:25:18.086Z,31.60
2022-09-04T08:25:50.464Z,36.45
2022-09-04T08:26:32.105Z,20.60
2022-09-04T08:27:32.288Z,18.33
2022-09-04T08:28:46.284Z,27.15
2022-09-04T08:29:42.458Z,16.88
2022-09-04T08:30:15.580Z,17.17
2022-09-04T08:30:54.282Z,18.20
2022-09-04T08:31:37.207Z,19.38
2022-09-04T08:32:15.600Z,14.40
2022-09-04T08:33:10.749Z,18.05
2022-09-04T08:33:51.991Z,20.65
2022-09-04T08:34:42.976Z,26.10
2022-09-04T08:35:34.489Z,23.83
2022-09-04T08:36:10.587Z,23.73
2022-09-04T08:36:48.636Z,22.33
2022-09-04T08:37:27.869Z,41.47
2022-09-04T08:38:29.529Z,56.47
2022-09-04T08:39:13.797Z,21.63
2022-09-04T08:40:06.623Z,27.02
2022-09-04T08:40:50.175Z,23.60
2022-09-04T08:41:43.078Z,65.93
2022-09-04T08:42:42.526Z,71.35
2022-09-04T08:43:33.764Z,105.55
2022-09-04T08:44:20.616Z,56.35
2022-09-04T08:45:12.590Z,86.43
2022-09-04T08:46:18.477Z,46.55
2022-09-04T08:47:03.033Z,23.95
2022-09-04T08:47:41.351Z,24.48
2022-09-04T08:48:14.797Z,15.93
2022-09-04T08:49:11.211Z,23.45
2022-09-04T08:49:59.525Z,23.08
2022-09-04T08:50:54.220Z,26.70
2022-09-04T08:51:41.925Z,36.25
2022-09-04T08:52:23.381Z,16.35
2022-09-04T08:53:08.010Z,37.08
2022-09-04T08:53:51.663Z,16.98
2022-09-04T08:54:35.714Z,34.85
2022-09-04T08:55:27.732Z,27.73
2022-09-04T08:56:07.005Z,33.28
2022-09-04T08:56:39.388Z,20.90
2022-09-04T08:57:31.150Z,24.50
2022-09-04T08:58:12.414Z,57.22
2022-09-04T08:58:55.115Z,24.17
2022-09-04T08:59:38.051Z,34.28
2022-09-04T09:00:19.049Z,22.88
2022-09-04T09:01:14.469Z,44.95
2022-09-04T09:01:59.487Z,72.53
2022-09-04T09:03:06.104Z,35.30
2022-09-04T09:03:39.290Z,31.90
2022-09-04T09:04:12.177Z,20.42
2022-09-04T09:04:49.548Z,18.65
2022-09-04T09:05:25.928Z,34.05
2022-09-04T09:06:20.410Z,34.33
2022-09-04T09:07:00.752Z,42.15
2022-09-04T09:07:41.660Z,70.57
2022-09-04T09:08:15.267Z,73.20
2022-09-04T09:09:06.149Z,31.65
2022-09-04T09:09:58.483Z,32.63
2022-09-04T09:10:49.466Z,45.08
2022-09-04T09:11:21.690Z,40.53
2022-09-04T09:11:53.890Z,33.60
2022-09-04T09:12:41.499Z,51.08